createdAt,value
2018-11-14T00:00:53.956Z,1021.89
2018-11-14T00:02:03.645Z,1021.94
2018-11-14T00:03:13.594Z,1021.91
2018-11-14T00:04:22.791Z,1021.97
2018-11-14T00:05:32.478Z,1021.95
2018-11-14T00:06:42.437Z,1021.97
2018-11-14T00:07:52.133Z,1021.98
2018-11-14T00:09:01.814Z,1022.02
2018-11-14T00:10:11.614Z,1022.02
2018-11-14T00:11:22.113Z,1021.99
2018-11-14T00:12:32.057Z,1022
2018-11-14T00:13:41.480Z,1022.07
2018-11-14T00:14:51.179Z,1022.03
2018-11-14T00:16:01.124Z,1022.01
2018-11-14T00:17:10.562Z,1022.14
2018-11-14T00:18:20.242Z,1022.07
2018-11-14T00:19:29.938Z,1022.1
2018-11-14T00:20:40.064Z,1022.02
2018-11-14T00:21:49.231Z,1022.07
2018-11-14T00:22:59.188Z,1022.05
2018-11-14T00:24:09.132Z,1022
2018-11-14T00:25:19.131Z,1022.07
2018-11-14T00:26:28.830Z,1022.09
2018-11-14T00:27:38.634Z,1022.01
2018-11-14T00:28:48.776Z,1021.99
2018-11-14T00:29:58.201Z,1022.02
2018-11-14T00:31:08.146Z,1022.03
2018-11-14T00:32:18.084Z,1022.01
2018-11-14T00:33:27.523Z,1022.04
2018-11-14T00:34:37.519Z,1022.05
2018-11-14T00:35:48.121Z,1022.04
2018-11-14T00:36:58.025Z,1022.07
2018-11-14T00:38:07.713Z,1022.08
2018-11-14T00:39:17.402Z,1022.13
2018-11-14T00:40:27.095Z,1022.13
2018-11-14T00:41:37.083Z,1022.15
2018-11-14T00:42:46.785Z,1022.11
2018-11-14T00:43:56.753Z,1022.15
2018-11-14T00:45:06.707Z,1022.14
2018-11-14T00:46:16.410Z,1022.17
2018-11-14T00:47:26.370Z,1022.11
2018-11-14T00:48:36.328Z,1022.18
2018-11-14T00:49:46.277Z,1022.22
2018-11-14T00:50:56.221Z,1022.21
2018-11-14T00:52:05.909Z,1022.23
2018-11-14T00:53:15.609Z,1022.25
2018-11-14T00:54:25.299Z,1022.19
2018-11-14T00:55:34.741Z,1022.28
2018-11-14T00:56:44.698Z,1022.21
2018-11-14T00:57:54.642Z,1022.23
2018-11-14T00:59:04.345Z,1022.3
2018-11-14T01:00:14.295Z,1022.27
2018-11-14T01:01:24.008Z,1022.27
2018-11-14T01:02:34.481Z,1022.2
2018-11-14T01:03:44.727Z,1022.22
2018-11-14T01:04:54.152Z,1022.18
2018-11-14T01:06:03.597Z,1022.22
2018-11-14T01:07:13.538Z,1022.23
2018-11-14T01:08:22.970Z,1022.18
2018-11-14T01:09:32.425Z,1022.22
2018-11-14T01:10:42.377Z,1022.22
2018-11-14T01:11:52.082Z,1022.21
2018-11-14T01:13:01.816Z,1022.27
2018-11-14T01:14:11.104Z,1022.22
2018-11-14T01:15:20.528Z,1022.28
2018-11-14T01:16:29.428Z,1022.24
2018-11-14T01:17:39.126Z,1022.37
2018-11-14T01:18:48.818Z,1022.37
2018-11-14T01:19:58.493Z,1022.35
2018-11-14T01:21:07.931Z,1022.34
2018-11-14T01:22:17.098Z,1022.33
2018-11-14T01:23:26.556Z,1022.35
2018-11-14T01:24:36.523Z,1022.36
2018-11-14T01:25:45.971Z,1022.37
2018-11-14T01:26:55.685Z,1022.33
2018-11-14T01:28:05.618Z,1022.34
2018-11-14T01:29:15.051Z,1022.35
2018-11-14T01:30:25.006Z,1022.35
2018-11-14T01:31:34.977Z,1022.3
2018-11-14T01:32:44.402Z,1022.31
2018-11-14T01:33:53.895Z,1022.33
2018-11-14T01:35:04.030Z,1022.35
2018-11-14T01:36:13.714Z,1022.33
2018-11-14T01:37:23.393Z,1022.36
2018-11-14T01:38:33.099Z,1022.33
2018-11-14T01:39:43.046Z,1022.31
2018-11-14T01:40:52.723Z,1022.35
2018-11-14T01:42:02.500Z,1022.34
2018-11-14T01:43:11.926Z,1022.31
2018-11-14T01:44:21.628Z,1022.32
2018-11-14T01:45:31.305Z,1022.35
2018-11-14T01:46:40.999Z,1022.38
2018-11-14T01:47:50.698Z,1022.41
2018-11-14T01:49:00.130Z,1022.4
2018-11-14T01:50:09.818Z,1022.37
2018-11-14T01:51:19.515Z,1022.41
2018-11-14T01:52:29.225Z,1022.39
2018-11-14T01:53:38.655Z,1022.38
2018-11-14T01:54:48.153Z,1022.33
2018-11-14T01:55:58.141Z,1022.37
2018-11-14T01:57:07.829Z,1022.31
2018-11-14T01:58:17.504Z,1022.31
2018-11-14T01:59:27.188Z,1022.33
2018-11-14T02:00:37.139Z,1022.29
2018-11-14T02:01:47.112Z,1022.37
2018-11-14T02:02:56.801Z,1022.36
2018-11-14T02:04:06.977Z,1022.39
2018-11-14T02:05:16.447Z,1022.34
2018-11-14T02:06:25.700Z,1022.37
2018-11-14T02:07:35.633Z,1022.33
2018-11-14T02:08:45.584Z,1022.38
2018-11-14T02:09:55.275Z,1022.33
2018-11-14T02:11:04.713Z,1022.38
2018-11-14T02:12:14.127Z,1022.49
2018-11-14T02:13:24.091Z,1022.42
2018-11-14T02:14:33.519Z,1022.4
2018-11-14T02:15:43.205Z,1022.44
2018-11-14T02:16:53.149Z,1022.43
2018-11-14T02:18:03.101Z,1022.44
2018-11-14T02:19:12.791Z,1022.45
2018-11-14T02:20:22.732Z,1022.43
2018-11-14T02:21:32.166Z,1022.51
2018-11-14T02:22:41.844Z,1022.54
2018-11-14T02:23:51.527Z,1022.43
2018-11-14T02:25:01.510Z,1022.48
2018-11-14T02:26:11.220Z,1022.49
2018-11-14T02:27:20.662Z,1022.55
2018-11-14T02:28:30.334Z,1022.49
2018-11-14T02:29:40.018Z,1022.54
2018-11-14T02:30:49.960Z,1022.49
2018-11-14T02:31:59.657Z,1022.52
2018-11-14T02:33:09.088Z,1022.52
2018-11-14T02:34:19.021Z,1022.48
2018-11-14T02:35:28.447Z,1022.46
2018-11-14T02:36:38.435Z,1022.5
2018-11-14T02:37:48.415Z,1022.57
2018-11-14T02:38:58.130Z,1022.55
2018-11-14T02:40:07.859Z,1022.56
2018-11-14T02:41:17.836Z,1022.46
2018-11-14T02:42:27.521Z,1022.59
2018-11-14T02:43:37.226Z,1022.45
2018-11-14T02:44:46.920Z,1022.47
2018-11-14T02:45:56.352Z,1022.56
2018-11-14T02:47:06.044Z,1022.55
2018-11-14T02:48:15.732Z,1022.54
2018-11-14T02:49:25.172Z,1022.51
2018-11-14T02:50:35.162Z,1022.67
2018-11-14T02:51:45.104Z,1022.58
2018-11-14T02:52:54.797Z,1022.6
2018-11-14T02:54:04.492Z,1022.51
2018-11-14T02:55:14.466Z,1022.48
2018-11-14T02:56:24.405Z,1022.45
2018-11-14T02:57:33.829Z,1022.53
2018-11-14T02:58:43.528Z,1022.48
2018-11-14T02:59:53.206Z,1022.49
2018-11-14T03:01:02.904Z,1022.57
2018-11-14T03:02:12.847Z,1022.53
2018-11-14T03:03:22.805Z,1022.52
2018-11-14T03:04:32.489Z,1022.57
2018-11-14T03:05:41.913Z,1022.58
2018-11-14T03:06:51.596Z,1022.64
2018-11-14T03:08:01.551Z,1022.52
2018-11-14T03:09:10.989Z,1022.55
2018-11-14T03:10:20.681Z,1022.53
2018-11-14T03:11:30.430Z,1022.54
2018-11-14T03:12:40.123Z,1022.64
2018-11-14T03:13:50.095Z,1022.57
2018-11-14T03:15:00.041Z,1022.56
2018-11-14T03:16:09.712Z,1022.53
2018-11-14T03:17:19.654Z,1022.56
2018-11-14T03:18:29.602Z,1022.66
2018-11-14T03:19:39.038Z,1022.72
2018-11-14T03:20:48.977Z,1022.64
2018-11-14T03:21:58.927Z,1022.61
2018-11-14T03:23:08.905Z,1022.68
2018-11-14T03:24:18.601Z,1022.65
2018-11-14T03:25:28.027Z,1022.75
2018-11-14T03:26:37.976Z,1022.68
2018-11-14T03:27:47.654Z,1022.65
2018-11-14T03:28:57.341Z,1022.68
2018-11-14T03:30:07.080Z,1022.7
2018-11-14T03:31:16.791Z,1022.81
2018-11-14T03:32:26.778Z,1022.72
2018-11-14T03:33:35.953Z,1022.65
2018-11-14T03:34:45.129Z,1022.75
2018-11-14T03:35:54.580Z,1022.67
2018-11-14T03:37:04.534Z,1022.79
2018-11-14T03:38:13.960Z,1022.75
2018-11-14T03:39:23.639Z,1022.85
2018-11-14T03:40:33.350Z,1022.89
2018-11-14T03:41:43.289Z,1022.91
2018-11-14T03:42:52.721Z,1022.88
2018-11-14T03:44:02.428Z,1022.94
2018-11-14T03:45:11.852Z,1022.89
2018-11-14T03:46:21.581Z,1022.88
2018-11-14T03:47:31.525Z,1022.9
2018-11-14T03:48:40.746Z,1022.92
2018-11-14T03:49:50.170Z,1023.06
2018-11-14T03:50:59.846Z,1022.91
2018-11-14T03:52:09.542Z,1022.92
2018-11-14T03:53:19.490Z,1022.89
2018-11-14T03:54:29.457Z,1022.84
2018-11-14T03:55:38.887Z,1022.84
2018-11-14T03:56:48.069Z,1022.87
2018-11-14T03:57:57.907Z,1022.83
2018-11-14T03:59:07.798Z,1022.85
2018-11-14T04:00:17.485Z,1022.82
2018-11-14T04:01:27.241Z,1022.8
2018-11-14T04:02:36.664Z,1022.84
2018-11-14T04:03:46.104Z,1022.84
2018-11-14T04:04:55.524Z,1022.82
2018-11-14T04:06:04.973Z,1022.81
2018-11-14T04:07:14.417Z,1022.77
2018-11-14T04:08:24.422Z,1022.77
2018-11-14T04:09:34.361Z,1022.74
2018-11-14T04:10:44.048Z,1022.76
2018-11-14T04:11:53.739Z,1022.69
2018-11-14T04:13:03.692Z,1022.7
2018-11-14T04:14:13.384Z,1022.64
2018-11-14T04:15:23.339Z,1022.62
2018-11-14T04:16:33.286Z,1022.64
2018-11-14T04:17:42.749Z,1022.66
2018-11-14T04:18:52.179Z,1022.57
2018-11-14T04:20:02.131Z,1022.66
2018-11-14T04:21:11.551Z,1022.62
2018-11-14T04:22:21.474Z,1022.65
2018-11-14T04:23:31.413Z,1022.67
2018-11-14T04:24:40.876Z,1022.68
2018-11-14T04:25:50.372Z,1022.62
2018-11-14T04:27:00.326Z,1022.67
2018-11-14T04:28:09.759Z,1022.6
2018-11-14T04:29:19.708Z,1022.62
2018-11-14T04:30:29.136Z,1022.61
2018-11-14T04:31:39.075Z,1022.63
2018-11-14T04:32:48.777Z,1022.66
2018-11-14T04:33:58.724Z,1022.65
2018-11-14T04:35:08.406Z,1022.65
2018-11-14T04:36:18.117Z,1022.66
2018-11-14T04:37:27.799Z,1022.68
2018-11-14T04:38:37.494Z,1022.72
2018-11-14T04:39:47.435Z,1022.7
2018-11-14T04:40:57.134Z,1022.69
2018-11-14T04:42:07.097Z,1022.67
2018-11-14T04:43:17.051Z,1022.69
2018-11-14T04:44:27.033Z,1022.68
2018-11-14T04:45:36.869Z,1022.71
2018-11-14T04:46:46.285Z,1022.69
2018-11-14T04:47:56.271Z,1022.74
2018-11-14T04:49:06.256Z,1022.69
2018-11-14T04:50:16.649Z,1022.69
2018-11-14T04:51:26.595Z,1022.69
2018-11-14T04:52:36.020Z,1022.68
2018-11-14T04:53:45.722Z,1022.69
2018-11-14T04:54:55.459Z,1022.62
2018-11-14T04:56:05.390Z,1022.64
2018-11-14T04:57:15.319Z,1022.65
2018-11-14T04:58:24.744Z,1022.62
2018-11-14T04:59:34.438Z,1022.57
2018-11-14T05:00:44.139Z,1022.61
2018-11-14T05:01:53.568Z,1022.52
2018-11-14T05:03:03.006Z,1022.54
2018-11-14T05:04:12.957Z,1022.58
2018-11-14T05:05:22.139Z,1022.63
2018-11-14T05:06:31.626Z,1022.64
2018-11-14T05:07:41.312Z,1022.62
2018-11-14T05:08:51.003Z,1022.66
2018-11-14T05:09:59.928Z,1022.64
2018-11-14T05:11:09.631Z,1022.67
2018-11-14T05:12:19.580Z,1022.63
2018-11-14T05:13:29.304Z,1022.76
2018-11-14T05:14:39.746Z,1022.76
2018-11-14T05:15:49.448Z,1022.73
2018-11-14T05:16:59.412Z,1022.77
2018-11-14T05:18:09.120Z,1022.72
2018-11-14T05:19:18.804Z,1022.72
2018-11-14T05:20:28.519Z,1022.73
2018-11-14T05:21:38.219Z,1022.8
2018-11-14T05:22:47.903Z,1022.84
2018-11-14T05:23:57.858Z,1022.79
2018-11-14T05:25:07.559Z,1022.77
2018-11-14T05:26:17.267Z,1022.83
2018-11-14T05:27:27.218Z,1022.87
2018-11-14T05:28:36.906Z,1022.86
2018-11-14T05:29:46.342Z,1022.9
2018-11-14T05:30:55.768Z,1022.86
2018-11-14T05:32:05.720Z,1022.92
2018-11-14T05:33:15.397Z,1022.87
2018-11-14T05:34:25.090Z,1022.81
2018-11-14T05:35:34.517Z,1022.85
2018-11-14T05:36:43.695Z,1022.89
2018-11-14T05:37:53.391Z,1022.91
2018-11-14T05:39:03.071Z,1022.96
2018-11-14T05:40:13.136Z,1022.93
2018-11-14T05:41:22.995Z,1022.97
2018-11-14T05:42:32.689Z,1023
2018-11-14T05:43:42.114Z,1022.93
2018-11-14T05:44:52.071Z,1022.97
2018-11-14T05:46:02.019Z,1022.94
2018-11-14T05:47:11.730Z,1022.98
2018-11-14T05:48:21.413Z,1023.01
2018-11-14T05:49:31.101Z,1023.01
2018-11-14T05:50:40.793Z,1022.98
2018-11-14T05:51:50.490Z,1022.99
2018-11-14T05:52:59.932Z,1023.03
2018-11-14T05:54:09.613Z,1022.97
2018-11-14T05:55:19.574Z,1023.02
2018-11-14T05:56:29.284Z,1023.03
2018-11-14T05:57:39.263Z,1023.01
2018-11-14T05:58:48.701Z,1023.07
2018-11-14T05:59:58.395Z,1023.01
2018-11-14T06:01:07.828Z,1023.02
2018-11-14T06:02:17.249Z,1023.02
2018-11-14T06:03:26.951Z,1022.98
2018-11-14T06:04:36.641Z,1023.05
2018-11-14T06:05:46.365Z,1023.01
2018-11-14T06:06:56.563Z,1023.09
2018-11-14T06:08:06.908Z,1023.06
2018-11-14T06:09:16.872Z,1023.1
2018-11-14T06:10:26.846Z,1023.13
2018-11-14T06:11:36.808Z,1023.11
2018-11-14T06:12:46.235Z,1023.11
2018-11-14T06:13:55.925Z,1023.13
2018-11-14T06:15:05.397Z,1023.12
2018-11-14T06:16:14.919Z,1023.13
2018-11-14T06:17:24.361Z,1023.17
2018-11-14T06:18:34.068Z,1023.14
2018-11-14T06:19:44.036Z,1023.16
2018-11-14T06:20:53.720Z,1023.15
2018-11-14T06:22:03.548Z,1023.15
2018-11-14T06:23:13.836Z,1023.15
2018-11-14T06:24:23.541Z,1023.24
2018-11-14T06:25:33.538Z,1023.16
2018-11-14T06:26:43.261Z,1023.13
2018-11-14T06:27:53.195Z,1023.25
2018-11-14T06:29:02.883Z,1023.22
2018-11-14T06:30:12.575Z,1023.23
2018-11-14T06:31:22.067Z,1023.29
2018-11-14T06:32:31.231Z,1023.25
2018-11-14T06:33:41.190Z,1023.32
2018-11-14T06:34:51.140Z,1023.28
2018-11-14T06:36:01.093Z,1023.34
2018-11-14T06:37:10.777Z,1023.38
2018-11-14T06:38:20.467Z,1023.35
2018-11-14T06:39:29.876Z,1023.38
2018-11-14T06:40:39.558Z,1023.36
2018-11-14T06:41:49.610Z,1023.43
2018-11-14T06:42:59.709Z,1023.43
2018-11-14T06:44:09.656Z,1023.47
2018-11-14T06:45:19.118Z,1023.48
2018-11-14T06:46:28.576Z,1023.5
2018-11-14T06:47:38.263Z,1023.49
2018-11-14T06:48:48.202Z,1023.51
2018-11-14T06:49:57.972Z,1023.54
2018-11-14T06:51:08.101Z,1023.59
2018-11-14T06:52:18.049Z,1023.56
2018-11-14T06:53:27.740Z,1023.59
2018-11-14T06:54:37.448Z,1023.51
2018-11-14T06:55:47.128Z,1023.56
2018-11-14T06:56:56.833Z,1023.47
2018-11-14T06:58:06.534Z,1023.44
2018-11-14T06:59:16.308Z,1023.44
2018-11-14T07:00:26.912Z,1023.45
2018-11-14T07:01:36.900Z,1023.37
2018-11-14T07:02:46.597Z,1023.46
2018-11-14T07:03:56.048Z,1023.48
2018-11-14T07:05:05.646Z,1023.49
2018-11-14T07:06:17.075Z,1023.55
2018-11-14T07:07:26.891Z,1023.53
2018-11-14T07:08:36.597Z,1023.54
2018-11-14T07:09:46.579Z,1023.56
2018-11-14T07:10:56.384Z,1023.51
2018-11-14T07:12:06.373Z,1023.56
2018-11-14T07:13:15.805Z,1023.55
2018-11-14T07:14:25.546Z,1023.58
2018-11-14T07:15:35.240Z,1023.62
2018-11-14T07:16:45.186Z,1023.52
2018-11-14T07:17:54.964Z,1023.51
2018-11-14T07:19:05.166Z,1023.55
2018-11-14T07:20:14.867Z,1023.64
2018-11-14T07:21:24.566Z,1023.56
2018-11-14T07:22:34.290Z,1023.59
2018-11-14T07:23:43.748Z,1023.54
2018-11-14T07:24:54.254Z,1023.57
2018-11-14T07:26:03.699Z,1023.56
2018-11-14T07:27:13.712Z,1023.59
2018-11-14T07:28:23.409Z,1023.57
2018-11-14T07:29:33.383Z,1023.61
2018-11-14T07:30:43.083Z,1023.66
2018-11-14T07:31:52.820Z,1023.71
2018-11-14T07:33:02.681Z,1023.7
2018-11-14T07:34:12.156Z,1023.71
2018-11-14T07:35:21.355Z,1023.75
2018-11-14T07:36:31.067Z,1023.65
2018-11-14T07:37:40.820Z,1023.81
2018-11-14T07:38:51.119Z,1023.76
2018-11-14T07:40:01.063Z,1023.77
2018-11-14T07:41:10.521Z,1023.87
2018-11-14T07:42:20.206Z,1023.8
2018-11-14T07:43:30.264Z,1023.81
2018-11-14T07:44:39.645Z,1023.82
2018-11-14T07:45:49.089Z,1023.82
2018-11-14T07:46:58.790Z,1023.73
2018-11-14T07:48:09.198Z,1023.77
2018-11-14T07:49:18.902Z,1023.75
2018-11-14T07:50:28.603Z,1023.79
2018-11-14T07:51:38.577Z,1023.87
2018-11-14T07:52:48.299Z,1023.84
2018-11-14T07:53:58.261Z,1023.85
2018-11-14T07:55:07.432Z,1023.86
2018-11-14T07:56:17.407Z,1023.9
2018-11-14T07:57:27.389Z,1023.88
2018-11-14T07:58:37.085Z,1023.86
2018-11-14T07:59:46.843Z,1023.86
2018-11-14T08:00:56.562Z,1023.95
2018-11-14T08:02:06.610Z,1023.95
2018-11-14T08:03:17.107Z,1023.95
2018-11-14T08:04:26.816Z,1023.97
2018-11-14T08:05:36.763Z,1023.96
2018-11-14T08:06:46.719Z,1023.95
2018-11-14T08:07:56.823Z,1023.86
2018-11-14T08:09:06.941Z,1023.93
2018-11-14T08:10:16.951Z,1023.91
2018-11-14T08:11:26.953Z,1023.92
2018-11-14T08:12:37.001Z,1023.99
2018-11-14T08:13:46.705Z,1023.97
2018-11-14T08:14:56.689Z,1023.92
2018-11-14T08:16:06.415Z,1023.96
2018-11-14T08:17:16.119Z,1023.96
2018-11-14T08:18:26.063Z,1023.94
2018-11-14T08:19:35.852Z,1023.94
2018-11-14T08:20:45.801Z,1023.94
2018-11-14T08:21:54.981Z,1023.99
2018-11-14T08:23:04.428Z,1024.02
2018-11-14T08:24:13.613Z,1023.98
2018-11-14T08:25:23.571Z,1024.01
2018-11-14T08:26:33.278Z,1024.01
2018-11-14T08:27:43.276Z,1024
2018-11-14T08:28:53.244Z,1023.95
2018-11-14T08:30:03.197Z,1023.98
2018-11-14T08:31:13.155Z,1023.96
2018-11-14T08:32:23.121Z,1023.99
2018-11-14T08:33:32.840Z,1024.06
2018-11-14T08:34:42.552Z,1024.08
2018-11-14T08:35:52.263Z,1024.04
2018-11-14T08:37:02.203Z,1024.14
2018-11-14T08:38:12.390Z,1024.11
2018-11-14T08:39:22.226Z,1024.14
2018-11-14T08:40:32.639Z,1024.11
2018-11-14T08:41:42.399Z,1024.14
2018-11-14T08:42:51.873Z,1024.13
2018-11-14T08:44:01.831Z,1024.21
2018-11-14T08:45:11.544Z,1024.23
2018-11-14T08:46:21.241Z,1024.25
2018-11-14T08:47:31.232Z,1024.24
2018-11-14T08:48:40.724Z,1024.35
2018-11-14T08:49:50.690Z,1024.31
2018-11-14T08:51:00.410Z,1024.34
2018-11-14T08:52:10.087Z,1024.33
2018-11-14T08:53:19.325Z,1024.33
2018-11-14T08:54:29.034Z,1024.26
2018-11-14T08:55:38.740Z,1024.28
2018-11-14T08:56:48.707Z,1024.29
2018-11-14T08:57:58.761Z,1024.32
2018-11-14T08:59:08.634Z,1024.32
2018-11-14T09:00:18.273Z,1024.26
2018-11-14T09:01:28.013Z,1024.29
2018-11-14T09:02:37.975Z,1024.38
2018-11-14T09:03:48.014Z,1024.38
2018-11-14T09:04:57.999Z,1024.41
2018-11-14T09:06:07.733Z,1024.46
2018-11-14T09:07:17.658Z,1024.44
2018-11-14T09:08:26.616Z,1024.5
2018-11-14T09:09:36.329Z,1024.46
2018-11-14T09:10:45.771Z,1024.52
2018-11-14T09:11:55.917Z,1024.51
2018-11-14T09:13:05.766Z,1024.44
2018-11-14T09:14:16.483Z,1024.47
2018-11-14T09:15:26.688Z,1024.48
2018-11-14T09:16:36.140Z,1024.48
2018-11-14T09:17:46.123Z,1024.55
2018-11-14T09:18:55.576Z,1024.53
2018-11-14T09:20:05.540Z,1024.51
2018-11-14T09:21:14.992Z,1024.55
2018-11-14T09:22:24.692Z,1024.48
2018-11-14T09:23:34.137Z,1024.49
2018-11-14T09:24:43.948Z,1024.53
2018-11-14T09:25:53.813Z,1024.52
2018-11-14T09:27:03.539Z,1024.45
2018-11-14T09:28:13.046Z,1024.49
2018-11-14T09:29:23.027Z,1024.5
2018-11-14T09:30:32.716Z,1024.5
2018-11-14T09:31:42.478Z,1024.5
2018-11-14T09:32:52.545Z,1024.54
2018-11-14T09:34:02.444Z,1024.59
2018-11-14T09:35:12.203Z,1024.58
2018-11-14T09:36:21.715Z,1024.53
2018-11-14T09:37:31.416Z,1024.49
2018-11-14T09:38:40.866Z,1024.5
2018-11-14T09:39:50.319Z,1024.52
2018-11-14T09:41:00.471Z,1024.5
2018-11-14T09:42:10.122Z,1024.5
2018-11-14T09:43:19.826Z,1024.58
2018-11-14T09:44:29.827Z,1024.53
2018-11-14T09:45:40.229Z,1024.51
2018-11-14T09:46:49.742Z,1024.56
2018-11-14T09:47:59.433Z,1024.54
2018-11-14T09:49:09.409Z,1024.51
2018-11-14T09:50:19.135Z,1024.54
2018-11-14T09:51:29.153Z,1024.51
2018-11-14T09:52:38.607Z,1024.51
2018-11-14T09:53:48.372Z,1024.54
2018-11-14T09:54:58.085Z,1024.48
2018-11-14T09:56:08.060Z,1024.45
2018-11-14T09:57:17.779Z,1024.49
2018-11-14T09:58:26.997Z,1024.57
2018-11-14T09:59:36.986Z,1024.51
2018-11-14T10:00:46.765Z,1024.48
2018-11-14T10:01:56.340Z,1024.46
2018-11-14T10:03:05.900Z,1024.44
2018-11-14T10:04:15.512Z,1024.43
2018-11-14T10:05:25.512Z,1024.42
2018-11-14T10:06:34.888Z,1024.41
2018-11-14T10:07:44.659Z,1024.41
2018-11-14T10:08:54.740Z,1024.43
2018-11-14T10:10:04.835Z,1024.48
2018-11-14T10:11:14.537Z,1024.44
2018-11-14T10:12:23.757Z,1024.4
2018-11-14T10:13:33.686Z,1024.4
2018-11-14T10:14:43.394Z,1024.46
2018-11-14T10:15:53.215Z,1024.49
2018-11-14T10:17:03.250Z,1024.42
2018-11-14T10:18:13.233Z,1024.44
2018-11-14T10:19:23.021Z,1024.47
2018-11-14T10:20:32.988Z,1024.43
2018-11-14T10:21:42.799Z,1024.53
2018-11-14T10:22:52.504Z,1024.49
2018-11-14T10:24:01.941Z,1024.43
2018-11-14T10:25:11.904Z,1024.45
2018-11-14T10:26:21.093Z,1024.54
2018-11-14T10:27:30.797Z,1024.54
2018-11-14T10:28:40.502Z,1024.48
2018-11-14T10:29:50.251Z,1024.48
2018-11-14T10:31:00.121Z,1024.52
2018-11-14T10:32:09.606Z,1024.49
2018-11-14T10:33:19.060Z,1024.49
2018-11-14T10:34:29.043Z,1024.54
2018-11-14T10:35:38.770Z,1024.52
2018-11-14T10:36:48.778Z,1024.5
2018-11-14T10:37:58.474Z,1024.57
2018-11-14T10:39:08.272Z,1024.59
2018-11-14T10:40:17.981Z,1024.58
2018-11-14T10:41:27.439Z,1024.57
2018-11-14T10:42:37.137Z,1024.52
2018-11-14T10:43:47.033Z,1024.59
2018-11-14T10:44:56.471Z,1024.55
2018-11-14T10:46:06.181Z,1024.65
2018-11-14T10:47:15.930Z,1024.66
2018-11-14T10:48:25.874Z,1024.64
2018-11-14T10:49:35.831Z,1024.63
2018-11-14T10:50:45.278Z,1024.66
2018-11-14T10:51:54.853Z,1024.63
2018-11-14T10:53:04.309Z,1024.68
2018-11-14T10:54:13.541Z,1024.6
2018-11-14T10:55:23.258Z,1024.6
2018-11-14T10:56:32.966Z,1024.67
2018-11-14T10:57:42.153Z,1024.72
2018-11-14T10:58:51.381Z,1024.72
2018-11-14T11:00:01.099Z,1024.66
2018-11-14T11:01:10.552Z,1024.65
2018-11-14T11:02:20.246Z,1024.62
2018-11-14T11:03:29.975Z,1024.58
2018-11-14T11:04:39.420Z,1024.55
2018-11-14T11:05:49.389Z,1024.5
2018-11-14T11:06:59.101Z,1024.55
2018-11-14T11:08:09.246Z,1024.57
2018-11-14T11:09:19.867Z,1024.55
2018-11-14T11:10:29.579Z,1024.62
2018-11-14T11:11:38.760Z,1024.55
2018-11-14T11:12:47.948Z,1024.57
2018-11-14T11:13:57.851Z,1024.65
2018-11-14T11:15:07.435Z,1024.66
2018-11-14T11:16:17.206Z,1024.68
2018-11-14T11:17:26.648Z,1024.61
2018-11-14T11:18:36.351Z,1024.68
2018-11-14T11:19:46.451Z,1024.59
2018-11-14T11:20:55.927Z,1024.59
2018-11-14T11:22:05.684Z,1024.62
2018-11-14T11:23:15.179Z,1024.54
2018-11-14T11:24:25.550Z,1024.61
2018-11-14T11:25:35.241Z,1024.62
2018-11-14T11:26:44.695Z,1024.63
2018-11-14T11:27:54.165Z,1024.6
2018-11-14T11:29:04.155Z,1024.58
2018-11-14T11:30:13.859Z,1024.61
2018-11-14T11:31:23.305Z,1024.73
2018-11-14T11:32:32.754Z,1024.68
2018-11-14T11:33:42.500Z,1024.61
2018-11-14T11:34:52.209Z,1024.65
2018-11-14T11:36:01.937Z,1024.65
2018-11-14T11:37:11.380Z,1024.67
2018-11-14T11:38:21.152Z,1024.59
2018-11-14T11:39:31.200Z,1024.54
2018-11-14T11:40:40.958Z,1024.58
2018-11-14T11:41:50.224Z,1024.54
2018-11-14T11:42:59.989Z,1024.52
2018-11-14T11:44:09.290Z,1024.55
2018-11-14T11:45:18.909Z,1024.51
2018-11-14T11:46:28.629Z,1024.53
2018-11-14T11:47:38.337Z,1024.56
2018-11-14T11:48:48.296Z,1024.54
2018-11-14T11:49:58.249Z,1024.59
2018-11-14T11:51:08.045Z,1024.62
2018-11-14T11:52:17.724Z,1024.69
2018-11-14T11:53:27.431Z,1024.68
2018-11-14T11:54:36.835Z,1024.67
2018-11-14T11:55:46.550Z,1024.78
2018-11-14T11:56:55.749Z,1024.76
2018-11-14T11:58:05.698Z,1024.81
2018-11-14T11:59:15.156Z,1024.77
2018-11-14T12:00:25.224Z,1024.67
2018-11-14T12:01:36.546Z,1024.66
2018-11-14T12:02:46.511Z,1024.65
2018-11-14T12:03:55.945Z,1024.7
2018-11-14T12:05:05.687Z,1024.65
2018-11-14T12:06:15.798Z,1024.67
2018-11-14T12:07:27.210Z,1024.69
2018-11-14T12:08:36.654Z,1024.62
2018-11-14T12:09:46.103Z,1024.63
2018-11-14T12:10:56.143Z,1024.61
2018-11-14T12:12:06.228Z,1024.63
2018-11-14T12:13:15.971Z,1024.65
2018-11-14T12:14:26.148Z,1024.63
2018-11-14T12:15:35.858Z,1024.61
2018-11-14T12:16:45.563Z,1024.63
2018-11-14T12:17:55.668Z,1024.58
2018-11-14T12:19:05.552Z,1024.59
2018-11-14T12:20:15.300Z,1024.54
2018-11-14T12:21:24.753Z,1024.59
2018-11-14T12:22:34.735Z,1024.56
2018-11-14T12:23:44.790Z,1024.59
2018-11-14T12:24:55.029Z,1024.48
2018-11-14T12:26:04.760Z,1024.51
2018-11-14T12:27:14.596Z,1024.47
2018-11-14T12:28:25.161Z,1024.39
2018-11-14T12:29:35.143Z,1024.37
2018-11-14T12:30:44.757Z,1024.39
2018-11-14T12:31:53.805Z,1024.4
2018-11-14T12:33:03.515Z,1024.45
2018-11-14T12:34:13.493Z,1024.29
2018-11-14T12:35:23.260Z,1024.3
2018-11-14T12:36:33.201Z,1024.36
2018-11-14T12:37:42.899Z,1024.22
2018-11-14T12:38:52.717Z,1024.31
2018-11-14T12:40:02.264Z,1024.27
2018-11-14T12:41:12.446Z,1024.32
2018-11-14T12:42:22.144Z,1024.26
2018-11-14T12:43:31.595Z,1024.31
2018-11-14T12:44:41.563Z,1024.23
2018-11-14T12:45:51.265Z,1024.21
2018-11-14T12:47:00.705Z,1024.19
2018-11-14T12:48:10.687Z,1024.23
2018-11-14T12:49:20.148Z,1024.28
2018-11-14T12:50:30.125Z,1024.23
2018-11-14T12:51:39.857Z,1024.18
2018-11-14T12:52:49.729Z,1024.21
2018-11-14T12:53:59.487Z,1024.23
2018-11-14T12:55:09.466Z,1024.27
2018-11-14T12:56:19.171Z,1024.25
2018-11-14T12:57:28.614Z,1024.26
2018-11-14T12:58:38.589Z,1024.27
2018-11-14T12:59:48.050Z,1024.29
2018-11-14T13:00:58.180Z,1024.29
2018-11-14T13:02:08.156Z,1024.31
2018-11-14T13:03:17.864Z,1024.34
2018-11-14T13:04:27.593Z,1024.34
2018-11-14T13:05:37.291Z,1024.28
2018-11-14T13:06:46.747Z,1024.31
2018-11-14T13:07:55.921Z,1024.28
2018-11-14T13:09:05.630Z,1024.29
2018-11-14T13:10:15.370Z,1024.29
2018-11-14T13:11:25.335Z,1024.29
2018-11-14T13:12:35.034Z,1024.3
2018-11-14T13:13:45.202Z,1024.29
2018-11-14T13:14:55.162Z,1024.33
2018-11-14T13:16:04.868Z,1024.33
2018-11-14T13:17:14.810Z,1024.29
2018-11-14T13:18:24.514Z,1024.3
2018-11-14T13:19:33.431Z,1024.28
2018-11-14T13:20:43.464Z,1024.28
2018-11-14T13:21:52.910Z,1024.27
2018-11-14T13:23:02.370Z,1024.31
2018-11-14T13:24:12.060Z,1024.37
2018-11-14T13:25:21.783Z,1024.33
2018-11-14T13:26:31.743Z,1024.36
2018-11-14T13:27:41.457Z,1024.37
2018-11-14T13:28:51.194Z,1024.37
2018-11-14T13:30:00.242Z,1024.36
2018-11-14T13:31:09.685Z,1024.35
2018-11-14T13:32:19.649Z,1024.38
2018-11-14T13:33:29.369Z,1024.4
2018-11-14T13:34:38.571Z,1024.39
2018-11-14T13:35:48.530Z,1024.38
2018-11-14T13:36:58.501Z,1024.37
2018-11-14T13:38:08.233Z,1024.35
2018-11-14T13:39:17.675Z,1024.35
2018-11-14T13:40:27.370Z,1024.37
2018-11-14T13:41:37.078Z,1024.31
2018-11-14T13:42:47.052Z,1024.35
2018-11-14T13:43:55.983Z,1024.36
2018-11-14T13:45:05.674Z,1024.29
2018-11-14T13:46:15.652Z,1024.29
2018-11-14T13:47:25.090Z,1024.32
2018-11-14T13:48:35.054Z,1024.3
2018-11-14T13:49:45.266Z,1024.34
2018-11-14T13:50:57.372Z,1024.38
2018-11-14T13:52:08.157Z,1024.32
2018-11-14T13:53:17.579Z,1024.28
2018-11-14T13:54:27.087Z,1024.31
2018-11-14T13:55:36.261Z,1024.32
2018-11-14T13:56:45.697Z,1024.31
2018-11-14T13:57:55.607Z,1024.37
2018-11-14T13:59:05.314Z,1024.39
2018-11-14T14:00:15.050Z,1024.35
2018-11-14T14:01:25.139Z,1024.35
2018-11-14T14:02:34.917Z,1024.32
2018-11-14T14:03:44.891Z,1024.27
2018-11-14T14:04:54.593Z,1024.29
2018-11-14T14:06:03.802Z,1024.31